createdAt,value
2022-08-26T00:00:48.895Z,14.17
2022-08-26T00:03:17.668Z,16.03
2022-08-26T00:05:45.327Z,12.87
2022-08-26T00:08:14.376Z,14.83
2022-08-26T00:10:41.701Z,15.93
2022-08-26T00:13:09.500Z,19.37
2022-08-26T00:15:37.196Z,18.23
2022-08-26T00:18:05.822Z,17.63
2022-08-26T00:20:48.881Z,14.83
2022-08-26T00:23:15.732Z,13.80
2022-08-26T00:25:43.029Z,11.23
2022-08-26T00:28:10.865Z,15.00
2022-08-26T00:30:38.266Z,18.93
2022-08-26T00:33:07.216Z,12.30
2022-08-26T00:35:34.599Z,17.70
2022-08-26T00:38:03.430Z,20.67
2022-08-26T00:40:32.706Z,17.40
2022-08-26T00:43:00.129Z,13.47
2022-08-26T00:45:27.423Z,19.33
2022-08-26T00:47:58.235Z,14.90
2022-08-26T00:50:30.280Z,21.33
2022-08-26T00:52:59.219Z,12.27
2022-08-26T00:55:34.647Z,12.27
2022-08-26T00:58:07.345Z,14.90
2022-08-26T01:00:35.215Z,16.83
2022-08-26T01:03:05.242Z,14.80
2022-08-26T01:05:33.617Z,17.43
2022-08-26T01:08:00.492Z,15.43
2022-08-26T01:10:31.125Z,11.83
2022-08-26T01:13:01.648Z,11.77
2022-08-26T01:15:34.214Z,13.47
2022-08-26T01:18:02.871Z,16.33
2022-08-26T01:20:35.312Z,12.83
2022-08-26T01:23:06.676Z,12.13
2022-08-26T01:25:39.521Z,18.13
2022-08-26T01:28:10.508Z,12.70
2022-08-26T01:30:39.850Z,16.53
2022-08-26T01:33:11.149Z,14.20
2022-08-26T01:35:38.343Z,16.07
2022-08-26T01:38:06.876Z,10.70
2022-08-26T01:40:38.079Z,14.17
2022-08-26T01:43:08.219Z,12.07
2022-08-26T01:45:37.053Z,9.30
2022-08-26T01:48:08.916Z,10.50
2022-08-26T01:50:38.543Z,13.67
2022-08-26T01:53:10.403Z,13.10
2022-08-26T01:55:40.873Z,15.73
2022-08-26T01:58:14.034Z,14.23
2022-08-26T02:00:41.043Z,16.83
2022-08-26T02:03:11.454Z,19.30
2022-08-26T02:05:40.165Z,19.97
2022-08-26T02:08:12.012Z,17.33
2022-08-26T02:10:41.216Z,12.30
2022-08-26T02:13:10.586Z,12.80
2022-08-26T02:15:40.959Z,10.20
2022-08-26T02:18:08.726Z,12.10
2022-08-26T02:20:40.926Z,16.83
2022-08-26T02:23:08.441Z,15.93
2022-08-26T02:25:44.396Z,15.50
2022-08-26T02:28:12.390Z,21.17
2022-08-26T02:30:40.366Z,17.77
2022-08-26T02:33:07.586Z,16.77
2022-08-26T02:35:35.829Z,20.47
2022-08-26T02:38:03.526Z,17.13
2022-08-26T02:40:40.405Z,13.13
2022-08-26T02:43:08.543Z,14.60
2022-08-26T02:45:36.084Z,12.17
2022-08-26T02:48:08.860Z,14.23
2022-08-26T02:50:37.593Z,15.80
2022-08-26T02:53:06.996Z,16.10
2022-08-26T02:55:34.406Z,19.23
2022-08-26T02:58:03.696Z,15.83
2022-08-26T03:00:30.944Z,15.70
2022-08-26T03:02:58.121Z,15.70
2022-08-26T03:05:25.449Z,14.27
2022-08-26T03:07:52.326Z,24.20
2022-08-26T03:10:19.297Z,19.33
2022-08-26T03:12:47.377Z,32.27
2022-08-26T03:15:18.558Z,19.13
2022-08-26T03:17:47.058Z,20.77
2022-08-26T03:20:15.469Z,18.87
2022-08-26T03:22:42.501Z,21.73
2022-08-26T03:25:11.690Z,16.93
2022-08-26T03:27:38.460Z,12.23
2022-08-26T03:30:07.548Z,12.03
2022-08-26T03:32:41.549Z,9.33
2022-08-26T03:35:09.077Z,18.40
2022-08-26T03:37:35.818Z,20.50
2022-08-26T03:40:03.463Z,13.17
2022-08-26T03:42:30.206Z,14.40
2022-08-26T03:44:56.903Z,17.73
2022-08-26T03:47:23.635Z,12.80
2022-08-26T03:49:51.961Z,16.60
2022-08-26T03:52:18.774Z,14.53
2022-08-26T03:54:45.478Z,17.13
2022-08-26T03:57:13.915Z,15.80
2022-08-26T03:59:43.491Z,22.80
2022-08-26T04:02:11.573Z,17.13
2022-08-26T04:04:38.980Z,14.50
2022-08-26T04:07:06.977Z,18.37
2022-08-26T04:09:35.127Z,16.70
2022-08-26T04:12:02.133Z,15.83
2022-08-26T04:14:30.236Z,22.10
2022-08-26T04:16:57.014Z,16.30
2022-08-26T04:19:25.154Z,18.27
2022-08-26T04:21:53.266Z,19.30
2022-08-26T04:24:23.019Z,15.03
2022-08-26T04:26:49.827Z,19.47
2022-08-26T04:29:18.579Z,14.67
2022-08-26T04:31:46.110Z,14.20
2022-08-26T04:34:14.257Z,12.30
2022-08-26T04:36:41.909Z,19.73
2022-08-26T04:39:10.311Z,16.43
2022-08-26T04:41:38.556Z,20.13
2022-08-26T04:44:06.830Z,17.60
2022-08-26T04:46:33.992Z,18.60
2022-08-26T04:49:00.867Z,21.20
2022-08-26T04:51:28.608Z,19.13
2022-08-26T04:53:56.134Z,18.60
2022-08-26T04:56:24.131Z,15.73
2022-08-26T04:58:52.459Z,25.87
2022-08-26T05:01:19.551Z,19.57
2022-08-26T05:03:46.414Z,20.30
2022-08-26T05:06:13.748Z,21.13
2022-08-26T05:08:40.694Z,23.20
2022-08-26T05:11:08.210Z,25.20
2022-08-26T05:13:36.638Z,32.03
2022-08-26T05:16:07.257Z,26.30
2022-08-26T05:18:34.495Z,19.60
2022-08-26T05:21:02.312Z,24.40
2022-08-26T05:23:30.481Z,19.17
2022-08-26T05:25:59.326Z,27.67
2022-08-26T05:28:29.359Z,23.27
2022-08-26T05:30:56.877Z,20.27
2022-08-26T05:33:24.991Z,22.80
2022-08-26T05:35:51.970Z,23.03
2022-08-26T05:38:20.993Z,35.53
2022-08-26T05:40:52.625Z,28.00
2022-08-26T05:43:20.246Z,24.30
2022-08-26T05:45:49.562Z,25.83
2022-08-26T05:48:17.823Z,24.20
2022-08-26T05:50:48.465Z,24.27
2022-08-26T05:53:18.151Z,17.60
2022-08-26T05:55:46.931Z,18.60
2022-08-26T05:58:14.473Z,21.13
2022-08-26T06:00:44.219Z,18.63
2022-08-26T06:03:11.228Z,27.20
2022-08-26T06:05:39.255Z,22.40
2022-08-26T06:08:07.969Z,25.23
2022-08-26T06:10:42.429Z,20.80
2022-08-26T06:13:17.996Z,21.20
2022-08-26T06:15:47.233Z,22.67
2022-08-26T06:18:15.560Z,28.57
2022-08-26T06:20:42.716Z,29.77
2022-08-26T06:23:11.341Z,19.30
2022-08-26T06:25:38.722Z,22.27
2022-08-26T06:28:06.283Z,20.00
2022-08-26T06:30:33.426Z,18.77
2022-08-26T06:33:00.277Z,18.50
2022-08-26T06:35:27.111Z,14.37
2022-08-26T06:37:53.793Z,20.43
2022-08-26T06:40:21.877Z,17.03
2022-08-26T06:42:48.642Z,21.63
2022-08-26T06:45:15.387Z,22.20
2022-08-26T06:47:42.094Z,33.10
2022-08-26T06:50:09.266Z,16.13
2022-08-26T06:52:35.940Z,14.17
2022-08-26T06:55:02.761Z,26.30
2022-08-26T06:57:31.644Z,22.87
2022-08-26T06:59:58.565Z,23.90
2022-08-26T07:02:25.367Z,24.77
2022-08-26T07:04:56.851Z,19.83
2022-08-26T07:07:23.685Z,15.00
2022-08-26T07:09:52.541Z,25.83
2022-08-26T07:12:19.391Z,24.83
2022-08-26T07:14:48.164Z,18.20
2022-08-26T07:17:15.102Z,22.00
2022-08-26T07:19:41.896Z,26.93
2022-08-26T07:22:09.312Z,25.17
2022-08-26T07:24:39.009Z,27.27
2022-08-26T07:27:08.610Z,17.80
2022-08-26T07:29:36.667Z,18.37
2022-08-26T07:32:05.592Z,20.80
2022-08-26T07:34:33.308Z,22.90
2022-08-26T07:37:00.696Z,26.87
2022-08-26T07:39:27.869Z,22.57
2022-08-26T07:41:55.215Z,25.60
2022-08-26T07:44:22.385Z,19.33
2022-08-26T07:46:52.249Z,22.37
2022-08-26T07:49:22.208Z,22.10
2022-08-26T07:51:50.048Z,18.40
2022-08-26T07:54:17.272Z,22.83
2022-08-26T07:56:45.913Z,19.10
2022-08-26T07:59:14.011Z,26.57
2022-08-26T08:01:45.031Z,26.60
2022-08-26T08:04:12.901Z,25.57
2022-08-26T08:06:44.023Z,21.53
2022-08-26T08:09:12.237Z,24.53
2022-08-26T08:11:39.301Z,27.40
2022-08-26T08:14:08.518Z,17.90
2022-08-26T08:16:41.880Z,19.33
2022-08-26T08:19:12.985Z,20.27
2022-08-26T08:21:41.146Z,17.70
2022-08-26T08:24:08.583Z,27.40
2022-08-26T08:26:35.665Z,17.43
2022-08-26T08:29:03.120Z,30.23
2022-08-26T08:34:19.442Z,29.00
2022-08-26T08:36:49.977Z,18.93
2022-08-26T08:39:20.517Z,19.93
2022-08-26T08:42:00.205Z,17.67
2022-08-26T08:47:00.323Z,26.67
2022-08-26T08:49:27.858Z,21.73
2022-08-26T08:52:02.071Z,25.17
2022-08-26T08:54:31.562Z,25.33
2022-08-26T08:57:06.615Z,25.50
2022-08-26T08:59:38.313Z,23.40
2022-08-26T09:02:23.620Z,24.67
2022-08-26T09:05:03.291Z,27.13
2022-08-26T09:07:37.729Z,19.90
2022-08-26T09:10:17.250Z,25.47
2022-08-26T09:12:45.701Z,30.80
2022-08-26T09:15:18.488Z,22.53
2022-08-26T09:17:53.466Z,21.57
2022-08-26T09:20:30.524Z,23.60
2022-08-26T09:22:58.564Z,17.50
2022-08-26T09:25:25.373Z,29.27
2022-08-26T09:27:53.532Z,31.20
2022-08-26T09:30:25.093Z,20.63
2022-08-26T09:32:59.503Z,35.70
2022-08-26T09:35:29.319Z,26.83
2022-08-26T09:37:56.136Z,19.97
2022-08-26T09:40:29.458Z,21.67
2022-08-26T09:43:12.840Z,15.63
2022-08-26T09:45:41.181Z,22.97
2022-08-26T09:48:29.450Z,17.87
2022-08-26T09:50:59.094Z,26.87
2022-08-26T09:53:30.543Z,30.57
2022-08-26T09:56:27.799Z,22.83
2022-08-26T09:58:56.421Z,24.77
2022-08-26T10:01:30.456Z,24.17
2022-08-26T10:04:06.546Z,22.87
2022-08-26T10:06:38.417Z,21.33
2022-08-26T10:09:10.852Z,23.70
2022-08-26T10:11:44.581Z,28.40
2022-08-26T10:14:18.620Z,23.93
2022-08-26T10:16:51.407Z,27.07
2022-08-26T10:19:24.877Z,26.60
2022-08-26T10:22:00.075Z,31.93
2022-08-26T10:24:31.898Z,28.37
2022-08-26T10:27:05.955Z,21.50
2022-08-26T10:29:39.653Z,38.10
2022-08-26T10:32:13.710Z,33.20
2022-08-26T10:34:40.814Z,29.47
2022-08-26T10:37:16.142Z,37.37
2022-08-26T10:39:56.929Z,25.57
2022-08-26T10:42:33.870Z,20.10
2022-08-26T10:45:05.787Z,28.37
2022-08-26T10:47:41.383Z,23.17
2022-08-26T10:50:08.879Z,23.87
2022-08-26T10:52:46.095Z,20.70
2022-08-26T10:55:20.364Z,16.57
2022-08-26T10:57:58.487Z,23.60
2022-08-26T11:00:31.914Z,16.73
2022-08-26T11:03:04.169Z,19.80
2022-08-26T11:05:30.966Z,26.97
2022-08-26T11:08:28.285Z,15.53
2022-08-26T11:10:58.842Z,17.30
2022-08-26T11:14:01.105Z,21.57
2022-08-26T11:16:42.946Z,32.63
2022-08-26T11:19:56.800Z,21.97
2022-08-26T11:22:27.433Z,22.53
2022-08-26T11:25:11.579Z,33.73
2022-08-26T11:28:02.527Z,36.20
2022-08-26T11:30:40.375Z,21.70
2022-08-26T11:33:07.698Z,29.83
2022-08-26T11:35:49.969Z,26.97
2022-08-26T11:38:28.215Z,20.03
2022-08-26T11:40:59.762Z,12.93
2022-08-26T11:43:31.883Z,28.73
2022-08-26T11:46:02.731Z,16.67
2022-08-26T11:48:31.800Z,29.10
2022-08-26T11:51:01.040Z,24.73
2022-08-26T11:53:32.291Z,16.57
2022-08-26T11:56:04.087Z,13.27
2022-08-26T11:58:31.505Z,16.73
2022-08-26T12:01:01.143Z,23.53
2022-08-26T12:03:38.721Z,32.50
2022-08-26T12:06:14.256Z,19.53
2022-08-26T12:08:44.876Z,16.50
2022-08-26T12:11:19.838Z,20.30
2022-08-26T12:13:54.735Z,20.00
2022-08-26T12:16:24.924Z,22.47
2022-08-26T12:18:52.095Z,20.87
2022-08-26T12:21:24.279Z,15.93
2022-08-26T12:23:55.166Z,18.53
2022-08-26T12:26:25.624Z,17.57
2022-08-26T12:28:55.641Z,16.67
2022-08-26T12:31:30.079Z,15.90
2022-08-26T12:33:59.129Z,33.97
2022-08-26T12:36:28.775Z,23.43
2022-08-26T12:38:58.646Z,17.80
2022-08-26T12:41:41.470Z,16.07
2022-08-26T12:44:08.460Z,26.07
2022-08-26T12:46:35.346Z,24.23
2022-08-26T12:49:02.121Z,18.87
2022-08-26T12:51:31.565Z,16.83
2022-08-26T12:54:00.196Z,15.00
2022-08-26T12:56:32.599Z,20.17
2022-08-26T12:59:10.259Z,14.70
2022-08-26T13:01:42.634Z,4.37
2022-08-26T13:04:40.682Z,20.97
2022-08-26T13:07:19.896Z,10.47
2022-08-26T13:09:48.908Z,14.33
2022-08-26T13:12:30.561Z,11.33
2022-08-26T13:14:58.455Z,7.40
2022-08-26T13:17:25.508Z,19.77
2022-08-26T13:19:52.254Z,8.30
2022-08-26T13:22:22.300Z,12.53
2022-08-26T13:24:51.924Z,9.50
2022-08-26T13:27:18.652Z,7.83
2022-08-26T13:29:45.333Z,9.80
2022-08-26T13:32:12.778Z,11.00
2022-08-26T13:34:39.785Z,8.33
2022-08-26T13:37:06.896Z,15.70
2022-08-26T13:39:33.787Z,6.57
2022-08-26T13:42:02.019Z,9.73
2022-08-26T13:44:28.849Z,13.93
2022-08-26T13:46:55.585Z,14.03
2022-08-26T13:49:22.519Z,12.80
2022-08-26T13:51:49.212Z,8.40
2022-08-26T13:54:15.903Z,14.30
2022-08-26T13:56:42.748Z,8.83
2022-08-26T13:59:10.935Z,8.67
2022-08-26T14:01:37.758Z,10.13
2022-08-26T14:04:04.427Z,9.37
2022-08-26T14:06:31.232Z,9.23
2022-08-26T14:08:57.995Z,9.50
2022-08-26T14:11:24.796Z,14.03
2022-08-26T14:13:51.974Z,10.60
2022-08-26T14:16:25.544Z,10.73
2022-08-26T14:18:53.580Z,12.03
2022-08-26T14:21:20.511Z,10.57
2022-08-26T14:23:47.388Z,13.20
2022-08-26T14:26:27.800Z,9.90
2022-08-26T14:28:56.804Z,11.33
2022-08-26T14:31:25.498Z,9.40
2022-08-26T14:33:52.541Z,12.90
2022-08-26T14:36:19.295Z,11.00
2022-08-26T14:38:46.109Z,7.47
2022-08-26T14:41:13.897Z,10.40
2022-08-26T14:43:48.517Z,8.53
2022-08-26T14:46:16.090Z,10.37
2022-08-26T14:48:44.339Z,8.50
2022-08-26T14:51:11.165Z,9.13
2022-08-26T14:53:37.906Z,12.77
2022-08-26T14:56:04.894Z,10.00
2022-08-26T14:58:34.840Z,7.50
2022-08-26T15:01:04.367Z,9.70
2022-08-26T15:03:31.263Z,10.93
2022-08-26T15:05:59.406Z,12.40
2022-08-26T15:08:26.226Z,12.03
2022-08-26T15:10:52.925Z,8.10
2022-08-26T15:13:19.665Z,11.00
2022-08-26T15:15:46.416Z,10.40
2022-08-26T15:18:13.168Z,6.37
2022-08-26T15:20:39.889Z,6.50
2022-08-26T15:23:08.355Z,5.83
2022-08-26T15:25:35.200Z,11.60
2022-08-26T15:28:02.274Z,6.73
2022-08-26T15:30:29.007Z,8.20
2022-08-26T15:32:55.742Z,5.23
2022-08-26T15:35:22.499Z,5.63
2022-08-26T15:40:17.449Z,4.83
2022-08-26T15:42:54.385Z,6.30
2022-08-26T15:45:28.204Z,8.20
2022-08-26T15:48:00.979Z,4.13
2022-08-26T15:50:28.801Z,6.70
2022-08-26T15:52:55.648Z,5.20
2022-08-26T15:55:23.931Z,8.23
2022-08-26T15:57:50.636Z,7.10
2022-08-26T16:00:17.825Z,6.27
2022-08-26T16:02:44.555Z,5.10
2022-08-26T16:05:11.272Z,5.90
2022-08-26T16:07:37.997Z,6.53
2022-08-26T16:10:05.345Z,7.27
2022-08-26T16:12:33.610Z,4.30
2022-08-26T16:15:00.315Z,4.43
2022-08-26T16:17:27.043Z,5.10
2022-08-26T16:19:53.987Z,5.67
2022-08-26T16:22:21.226Z,6.40
2022-08-26T16:24:49.007Z,4.93
2022-08-26T16:27:16.880Z,4.20
2022-08-26T16:29:44.971Z,5.53
2022-08-26T16:32:12.349Z,7.63
2022-08-26T16:34:46.983Z,5.90
2022-08-26T16:37:23.877Z,6.77
2022-08-26T16:39:50.776Z,10.83
2022-08-26T16:42:17.528Z,6.47
2022-08-26T16:44:46.716Z,7.07
2022-08-26T16:47:14.643Z,7.10
2022-08-26T16:49:42.709Z,6.10
2022-08-26T16:52:10.547Z,6.87
2022-08-26T16:54:39.262Z,5.87
2022-08-26T16:57:06.410Z,6.23
2022-08-26T16:59:34.640Z,7.80
2022-08-26T17:02:02.966Z,7.30
2022-08-26T17:04:30.177Z,4.60
2022-08-26T17:06:57.496Z,7.40
2022-08-26T17:09:24.954Z,6.47
2022-08-26T17:14:38.654Z,6.00
2022-08-26T17:17:07.623Z,8.67
2022-08-26T17:19:41.072Z,7.40
2022-08-26T17:22:14.265Z,5.43
2022-08-26T17:24:41.149Z,8.90
2022-08-26T17:27:08.111Z,9.70
2022-08-26T17:29:35.446Z,7.13
2022-08-26T17:32:02.559Z,6.77
2022-08-26T17:34:31.165Z,12.73
2022-08-26T17:36:58.205Z,12.80
2022-08-26T17:39:25.576Z,5.20
2022-08-26T17:41:52.659Z,6.47
2022-08-26T17:44:19.527Z,8.90
2022-08-26T17:46:46.397Z,5.00
2022-08-26T17:49:13.204Z,5.40
2022-08-26T17:51:41.350Z,6.43
2022-08-26T17:54:08.071Z,5.83
2022-08-26T17:56:34.974Z,7.03
2022-08-26T17:59:02.536Z,7.43
2022-08-26T18:01:30.821Z,6.30
2022-08-26T18:04:00.431Z,7.63
2022-08-26T18:06:28.820Z,7.47
2022-08-26T18:08:57.121Z,6.83
2022-08-26T18:11:23.856Z,9.13
2022-08-26T18:13:51.004Z,7.90
2022-08-26T18:16:19.181Z,6.97
2022-08-26T18:18:46.687Z,7.63
2022-08-26T18:21:15.838Z,7.57
2022-08-26T18:23:43.112Z,8.17
2022-08-26T18:26:16.607Z,7.87
2022-08-26T18:28:43.345Z,16.93
2022-08-26T18:31:10.228Z,7.43
2022-08-26T18:33:36.938Z,6.37
2022-08-26T18:36:03.939Z,7.87
2022-08-26T18:38:30.696Z,19.23
2022-08-26T18:40:57.518Z,9.80
2022-08-26T18:43:25.636Z,9.70
2022-08-26T18:46:01.729Z,9.93
2022-08-26T18:48:28.508Z,8.37
2022-08-26T18:50:55.429Z,8.10
2022-08-26T18:53:22.298Z,13.83
2022-08-26T18:55:48.998Z,8.37
2022-08-26T18:58:15.791Z,14.27
2022-08-26T19:00:44.062Z,8.00
2022-08-26T19:03:19.060Z,8.83
2022-08-26T19:05:46.350Z,9.63
2022-08-26T19:08:13.078Z,9.67
2022-08-26T19:10:39.915Z,13.13
2022-08-26T19:13:08.987Z,17.90
2022-08-26T19:15:38.129Z,16.60
2022-08-26T19:18:06.564Z,10.23
2022-08-26T19:20:33.663Z,8.60
2022-08-26T19:23:05.800Z,12.27
2022-08-26T19:25:41.387Z,7.77
2022-08-26T19:28:08.481Z,14.83
2022-08-26T19:30:38.093Z,8.20
2022-08-26T19:33:06.625Z,7.63
2022-08-26T19:35:33.915Z,8.13
2022-08-26T19:38:01.015Z,14.27
2022-08-26T19:40:28.196Z,13.90
2022-08-26T19:42:55.454Z,14.30
2022-08-26T19:45:25.279Z,12.07
2022-08-26T19:47:52.492Z,12.90
2022-08-26T19:50:20.958Z,19.17
2022-08-26T19:52:48.101Z,10.97
2022-08-26T19:55:16.899Z,11.60
2022-08-26T19:57:44.108Z,16.70
2022-08-26T20:00:13.800Z,17.10
2022-08-26T20:02:41.378Z,12.17
2022-08-26T20:05:10.653Z,16.33
2022-08-26T20:07:39.032Z,9.23
2022-08-26T20:10:07.560Z,10.50
2022-08-26T20:12:34.541Z,14.43
2022-08-26T20:15:01.897Z,20.40
2022-08-26T20:17:28.761Z,20.43
2022-08-26T20:19:55.436Z,16.70
2022-08-26T20:22:22.948Z,21.87
2022-08-26T20:24:51.247Z,15.00
2022-08-26T20:27:18.079Z,15.30
2022-08-26T20:29:44.799Z,16.03
2022-08-26T20:32:11.966Z,18.10
2022-08-26T20:34:38.964Z,18.57
2022-08-26T20:37:06.115Z,16.20
2022-08-26T20:39:33.026Z,20.73
2022-08-26T20:42:01.262Z,14.63
2022-08-26T20:44:28.032Z,17.93
2022-08-26T20:46:54.960Z,16.07
2022-08-26T20:49:22.025Z,15.20
2022-08-26T20:51:49.509Z,14.63
2022-08-26T20:54:16.286Z,16.87
2022-08-26T20:56:43.101Z,13.17
2022-08-26T20:59:11.370Z,15.47
2022-08-26T21:01:42.442Z,25.53
2022-08-26T21:04:12.043Z,18.20
2022-08-26T21:06:39.643Z,15.87
2022-08-26T21:09:11.354Z,17.60
2022-08-26T21:11:39.685Z,17.00
2022-08-26T21:14:16.182Z,18.47
2022-08-26T21:16:45.958Z,15.77
2022-08-26T21:19:16.243Z,17.63
2022-08-26T21:21:43.236Z,22.00
2022-08-26T21:24:10.147Z,15.27
2022-08-26T21:26:37.120Z,16.37
2022-08-26T21:29:05.003Z,13.70
2022-08-26T21:31:31.942Z,17.73
2022-08-26T21:34:00.264Z,17.27
2022-08-26T21:36:27.370Z,15.60
2022-08-26T21:38:55.584Z,16.60
2022-08-26T21:41:22.714Z,16.27
2022-08-26T21:43:50.635Z,20.10
2022-08-26T21:46:19.832Z,19.13
2022-08-26T21:48:50.685Z,20.00
2022-08-26T21:51:21.443Z,14.73
2022-08-26T21:53:48.819Z,18.10
2022-08-26T21:56:17.000Z,13.23
2022-08-26T21:58:44.099Z,15.87
2022-08-26T22:01:13.088Z,16.17
2022-08-26T22:03:47.474Z,13.83
2022-08-26T22:06:14.845Z,13.63
2022-08-26T22:08:42.922Z,15.87
2022-08-26T22:11:10.230Z,12.40
2022-08-26T22:13:38.901Z,17.10
2022-08-26T22:16:06.772Z,19.23
2022-08-26T22:18:34.269Z,12.17
2022-08-26T22:21:04.418Z,15.40
2022-08-26T22:23:31.438Z,15.30
2022-08-26T22:25:59.534Z,16.13
2022-08-26T22:28:26.752Z,14.63
2022-08-26T22:30:53.758Z,11.03
2022-08-26T22:33:20.487Z,11.97
2022-08-26T22:35:49.779Z,12.40
2022-08-26T22:38:17.570Z,11.23
2022-08-26T22:40:45.847Z,10.40
2022-08-26T22:43:14.460Z,11.87
2022-08-26T22:45:42.679Z,10.17
2022-08-26T22:48:10.813Z,11.70
2022-08-26T22:50:37.879Z,12.93
2022-08-26T22:53:04.583Z,11.37
2022-08-26T22:55:31.283Z,12.57
2022-08-26T22:57:57.990Z,10.20
2022-08-26T23:00:31.848Z,9.27
2022-08-26T23:02:59.562Z,8.13
2022-08-26T23:05:26.636Z,10.97
2022-08-26T23:07:53.351Z,9.30
2022-08-26T23:10:20.216Z,10.43
2022-08-26T23:12:46.932Z,11.80
2022-08-26T23:15:13.672Z,12.97
2022-08-26T23:17:41.728Z,10.10
2022-08-26T23:20:11.259Z,12.97
2022-08-26T23:22:38.500Z,10.47
2022-08-26T23:25:07.738Z,12.07
2022-08-26T23:27:35.835Z,18.07
2022-08-26T23:30:02.619Z,13.97
2022-08-26T23:32:29.308Z,15.67
2022-08-26T23:34:57.330Z,13.37
2022-08-26T23:37:24.648Z,15.83
2022-08-26T23:39:53.430Z,13.67
2022-08-26T23:42:20.214Z,12.70
2022-08-26T23:44:46.895Z,12.90
2022-08-26T23:47:14.164Z,12.37
2022-08-26T23:49:41.415Z,17.50
2022-08-26T23:52:09.468Z,9.40
2022-08-26T23:54:36.440Z,8.00
2022-08-26T23:57:03.231Z,10.83
2022-08-26T23:59:29.948Z,10.33
